Aviation Digital Data Service (ADDS)

Output produced by METARs form (0051 UTC 22 September 2017)
found at http://www.aviationweather.gov/adds/metars/
 
OAHR 212255Z 01006KT CAVOK 16/M03 Q1014 RMK BLU
TAF OAHR 211700Z 2118/2218 02009KT CAVOK 
     BECMG 2123/2201 VRB03KT 
     BECMG 2206/2208 02015KT 
     TEMPO 2210/2215 02015G25KT
       
OAJL 211855Z VRB01 8000 HZ FEW150 24/12 A2973 RMK AO2A SLP026 T02420122 $
TAF OAJL 220000Z 2200/2306 VRB06KT 8000 HZ FEW150 QNH2967INS 
     BECMG 2201/2202 VRB06KT 5000 HZ FEW100 FEW250 QNH2970INS 
     BECMG 2205/2206 10009KT 8000 HZ FEW100 QNH2965INS 
     TEMPO 2211/2214 13012G18KT 
     BECMG 2215/2216 VRB06KT 9000 HZ SKC QNH2971INS TX36/2210Z TN19/2201Z
       
OAKB 220050Z 00000KT 9000 NSC 14/06 Q1016 NOSIG RMK A3003 BLU BLU
TAF OAKB 212305Z 2200/2224 VRB02KT CAVOK 
     TEMPO 2201/2205 5000 HZ 
     BECMG 2205/2207 FEW090 
     BECMG 2208/2210 09012KT 
     PROB30 
     TEMPO 2211/2215 02015G25KT 5000 VCTS -BLDU SCT060CB 
     BECMG 2217/2219 VRB02KT CAVOK
       
TAF OAKN 212300Z 2123/2305 VRB06KT 9999 SKC QNH2982INS 
     BECMG 2208/2209 28009KT 9999 SKC QNH2980INS 
     BECMG 2213/2214 VRB06KT 9999 SKC QNH2982INS TX34/2210Z TN14/2123Z
       
OAMS 212350Z 26004KT 9999 SCT170 24/M00 Q1010 BLU+BLU+
TAF OAMS 212305Z 2200/2224 33008KT 9999 NSW FEW180 
     BECMG 2212/2214 21010KT 9999 NSW FEW180